Archival Weather

Bob Hope

Burbank, California (KBUR)

Report from: Monday, January 29, 2024 6:53 PM PST
Current time: Friday, June 14, 2024 6:50 AM PDT

Current weather – Weather history – Daily summaries
Weather forecast

Temperature20.0°C (68.0°F)
Dew point3.9°C (39.0°F)
Winds 5 kts (2.6 m/s, 5.8 mph) Northwest (310°)
Visibility10 mi. (16.1 km)
Clouds Sky clear
Altimeter30.07 in.Hg (1018 mB)
Relative humidity35 %
Density altitude570 ft. (174 m)
Sea-level pressure101.7 kPa (1017 mB, 30.04 in.Hg)
Remarks Automated weather observing station with precipitation discriminator
Pressure rising more slowly
Flight conditions Visual Meteorological Conditions
Raw dataKBUR 300253Z 31005KT 10SM CLR 20/04 A3007 RMK AO2 SLP173 T02000039 51009
An error has occurred. This application may no longer respond until reloaded. Reload 🗙